Kydon — SWBZ — position and weather

sailwx.info

Track history (hours):
 
Tides and Currents Weather Stations Pressure Air Temp Water Temp Dewpoint Dewpoint Depression Visibility Wind Speed Wind Dir Waves Ship Positions

Kydon

Last reported at 2016-Jul-28 19:34 UTC. Time now 2016-Jul-28 20:18 UTC.
Position N 37°54' E 023°37'.

Length 192 m; draft 6.1 m.

Type: Passenger vessel. MMSI: 239593000.

Date/timePositionNaut miles runAvg speedWind from/ knotsBaromVisibWave heightAir tempDewpointWater temp
2016-Jul-28 19:34N 37°54' E 023°37'3 2.8
2016-Jul-28 18:33N 37°57' E 023°38'0 0.0
2016-Jul-28 17:33N 37°57' E 023°38'0 0.0
2016-Jul-28 16:34N 37°57' E 023°38'0 0.0
2016-Jul-28 15:33N 37°57' E 023°38'5 4.7
2016-Jul-28 14:33N 37°52' E 023°38'2121.1
2016-Jul-28 13:33N 37°32' E 023°48'38 2.5
2016-Jul-27 22:32N 36°55' E 023°56'2020.3
2016-Jul-27 21:31N 37°15' E 023°50'2020.3
2016-Jul-27 20:33N 37°34' E 023°44'2019.8
2016-Jul-27 19:34N 37°53' E 023°37'4 4.3
2016-Jul-27 18:34N 37°57' E 023°38'0 0.0
2016-Jul-27 17:33N 37°57' E 023°38'0 0.0
2016-Jul-27 16:34N 37°57' E 023°38'0 0.0
2016-Jul-27 15:33N 37°57' E 023°38'4 4.4
2016-Jul-27 14:33N 37°52' E 023°38'2120.6
2016-Jul-27 13:34N 37°33' E 023°47'16 1.0
2016-Jul-26 21:33N 37°17' E 023°50'2120.6
2016-Jul-26 20:33N 37°37' E 023°43'1919.4
2016-Jul-26 19:34N 37°55' E 023°37'2 1.8
2016-Jul-26 18:33N 37°57' E 023°38'0 0.0
2016-Jul-26 17:33N 37°57' E 023°38'0 0.0
2016-Jul-26 16:33N 37°57' E 023°38'0 0.0
2016-Jul-26 15:33N 37°57' E 023°38'0 0.0
2016-Jul-26 14:33N 37°57' E 023°38'0 0.0
2016-Jul-26 13:34N 37°57' E 023°38'0 0.0
2016-Jul-26 12:33N 37°57' E 023°38'0 0.0
2016-Jul-26 11:33N 37°57' E 023°38'0 0.0
2016-Jul-26 10:33N 37°57' E 023°38'0 0.0
2016-Jul-26 09:33N 37°57' E 023°38'0 0.0
2016-Jul-26 08:33N 37°57' E 023°38'0 0.0
2016-Jul-26 07:33N 37°57' E 023°38'0 0.0
2016-Jul-26 06:33N 37°57' E 023°38'0 0.0
2016-Jul-26 05:33N 37°57' E 023°38'0 0.0
2016-Jul-26 04:33N 37°57' E 023°38'0 0.0
2016-Jul-26 03:33N 37°57' E 023°38'7 6.7
2016-Jul-26 02:34N 37°50' E 023°39'2120.8
2016-Jul-26 01:33N 37°30' E 023°48'15 0.5
2016-Jul-24 21:31N 37°16' E 023°50'2020.3
2016-Jul-24 20:33N 37°35' E 023°44'2019.6
2016-Jul-24 19:33N 37°54' E 023°37'3 3.3
2016-Jul-24 18:33N 37°57' E 023°38'0 0.0
2016-Jul-24 17:33N 37°57' E 023°38'0 0.0
2016-Jul-24 16:33N 37°57' E 023°38'0 0.0
2016-Jul-24 15:33N 37°57' E 023°38'4 4.4
2016-Jul-24 14:34N 37°52' E 023°38'2221.3
2016-Jul-24 13:33N 37°32' E 023°48'17 1.0
2016-Jul-23 21:32N 37°16' E 023°50'1919.6
2016-Jul-23 20:34N 37°34' E 023°44'1919.5
2016-Jul-23 19:34N 37°53' E 023°37'4 4.3
2016-Jul-23 18:34N 37°57' E 023°38'0 0.0
2016-Jul-23 17:34N 37°57' E 023°38'0 0.0
2016-Jul-23 16:33N 37°57' E 023°38'0 0.0
2016-Jul-23 15:34N 37°57' E 023°38'5 4.5
2016-Jul-23 14:33N 37°52' E 023°38'2121.1
2016-Jul-23 13:33N 37°33' E 023°48'38 2.5
2016-Jul-22 22:34N 36°55' E 023°56'2120.8
2016-Jul-22 21:33N 37°15' E 023°50'2020.4
2016-Jul-22 20:33N 37°35' E 023°43'2019.9
2016-Jul-22 19:33N 37°54' E 023°37'3 2.7
2016-Jul-22 18:33N 37°57' E 023°38'0 0.0
2016-Jul-22 17:33N 37°57' E 023°38'0 0.0
2016-Jul-22 16:33N 37°57' E 023°38'0 0.0
2016-Jul-22 15:33N 37°57' E 023°38'3 3.2
2016-Jul-22 14:34N 37°54' E 023°38'2120.7
2016-Jul-22 13:33N 37°34' E 023°47'16 1.0
2016-Jul-21 21:33N 37°18' E 023°50'2120.7
2016-Jul-21 20:33N 37°38' E 023°43'1918.8
2016-Jul-21 19:33N 37°56' E 023°37'1 1.0
2016-Jul-21 18:33N 37°57' E 023°38'0 0.0
2016-Jul-21 17:33N 37°57' E 023°38'0 0.0
2016-Jul-21 16:33N 37°57' E 023°38'0 0.0
2016-Jul-21 15:33N 37°57' E 023°38'0 0.0
2016-Jul-21 14:33N 37°57' E 023°38'0 0.0
2016-Jul-21 13:33N 37°57' E 023°38'0 0.0
2016-Jul-21 12:33N 37°57' E 023°38'0 0.0
2016-Jul-21 11:33N 37°57' E 023°38'0 0.0
2016-Jul-21 10:33N 37°57' E 023°38'0 0.0
2016-Jul-21 09:33N 37°57' E 023°38'0 0.0
2016-Jul-21 08:33N 37°57' E 023°38'0 0.0
2016-Jul-21 07:33N 37°57' E 023°38'0 0.0
2016-Jul-21 06:33N 37°57' E 023°38'0 0.0
2016-Jul-21 05:33N 37°57' E 023°38'0 0.0
2016-Jul-21 04:33N 37°57' E 023°38'0 0.0
2016-Jul-21 03:33N 37°57' E 023°38'7 6.9
2016-Jul-21 02:34N 37°50' E 023°40'2120.8
2016-Jul-21 01:33N 37°30' E 023°48'11 0.4
2016-Jul-19 21:32N 37°19' E 023°50'2020.6
2016-Jul-19 20:34N 37°38' E 023°43'1818.3
2016-Jul-19 19:34N 37°56' E 023°37'1 1.3
2016-Jul-19 18:33N 37°57' E 023°38'0 0.0
2016-Jul-19 17:33N 37°57' E 023°38'0 0.0
2016-Jul-19 16:33N 37°57' E 023°38'0 0.0
2016-Jul-19 15:33N 37°57' E 023°38'0 0.0
2016-Jul-19 14:33N 37°57' E 023°38'0 0.0
2016-Jul-19 13:33N 37°57' E 023°38'0 0.0
2016-Jul-19 12:33N 37°57' E 023°38'0 0.0
2016-Jul-19 11:30N 37°57' E 023°38'0 0.0
2016-Jul-19 10:34N 37°57' E 023°38'0 0.0
2016-Jul-19 09:33N 37°57' E 023°38'0 0.0
2016-Jul-19 08:34N 37°57' E 023°38'0 0.0
2016-Jul-19 07:33N 37°57' E 023°38'0 0.0
2016-Jul-19 04:33N 37°57' E 023°38'0 0.0
2016-Jul-19 03:33N 37°57' E 023°38'8 8.0
2016-Jul-19 02:33N 37°49' E 023°41'2020.0
2016-Jul-19 01:33N 37°30' E 023°48'  
Track history (hours):
 
Tides and Currents Weather Stations Pressure Air Temp Water Temp Dewpoint Dewpoint Depression Visibility Wind Speed Wind Dir Waves Ship Positions

Kydon

Last reported at 2016-Jul-28 19:34 UTC. Time now 2016-Jul-28 20:18 UTC.
Position N 37°54' E 023°37'.

Length 192 m; draft 6.1 m.

Type: Passenger vessel. MMSI: 239593000.

Date/timePositionNaut miles runAvg speedWind from/ knotsBaromVisibWave heightAir tempDewpointWater temp
2016-Jul-28 19:34N 37°54' E 023°37'3 2.8
2016-Jul-28 18:33N 37°57' E 023°38'0 0.0
2016-Jul-28 17:33N 37°57' E 023°38'0 0.0
2016-Jul-28 16:34N 37°57' E 023°38'0 0.0
2016-Jul-28 15:33N 37°57' E 023°38'5 4.7
2016-Jul-28 14:33N 37°52' E 023°38'2121.1
2016-Jul-28 13:33N 37°32' E 023°48'38 2.5
2016-Jul-27 22:32N 36°55' E 023°56'2020.3
2016-Jul-27 21:31N 37°15' E 023°50'2020.3
2016-Jul-27 20:33N 37°34' E 023°44'2019.8
2016-Jul-27 19:34N 37°53' E 023°37'4 4.3
2016-Jul-27 18:34N 37°57' E 023°38'0 0.0
2016-Jul-27 17:33N 37°57' E 023°38'0 0.0
2016-Jul-27 16:34N 37°57' E 023°38'0 0.0
2016-Jul-27 15:33N 37°57' E 023°38'4 4.4
2016-Jul-27 14:33N 37°52' E 023°38'2120.6
2016-Jul-27 13:34N 37°33' E 023°47'16 1.0
2016-Jul-26 21:33N 37°17' E 023°50'2120.6
2016-Jul-26 20:33N 37°37' E 023°43'1919.4
2016-Jul-26 19:34N 37°55' E 023°37'2 1.8
2016-Jul-26 18:33N 37°57' E 023°38'0 0.0
2016-Jul-26 17:33N 37°57' E 023°38'0 0.0
2016-Jul-26 16:33N 37°57' E 023°38'0 0.0
2016-Jul-26 15:33N 37°57' E 023°38'0 0.0
2016-Jul-26 14:33N 37°57' E 023°38'0 0.0
2016-Jul-26 13:34N 37°57' E 023°38'0 0.0
2016-Jul-26 12:33N 37°57' E 023°38'0 0.0
2016-Jul-26 11:33N 37°57' E 023°38'0 0.0
2016-Jul-26 10:33N 37°57' E 023°38'0 0.0
2016-Jul-26 09:33N 37°57' E 023°38'0 0.0
2016-Jul-26 08:33N 37°57' E 023°38'0 0.0
2016-Jul-26 07:33N 37°57' E 023°38'0 0.0
2016-Jul-26 06:33N 37°57' E 023°38'0 0.0
2016-Jul-26 05:33N 37°57' E 023°38'0 0.0
2016-Jul-26 04:33N 37°57' E 023°38'0 0.0
2016-Jul-26 03:33N 37°57' E 023°38'7 6.7
2016-Jul-26 02:34N 37°50' E 023°39'2120.8
2016-Jul-26 01:33N 37°30' E 023°48'15 0.5
2016-Jul-24 21:31N 37°16' E 023°50'2020.3
2016-Jul-24 20:33N 37°35' E 023°44'2019.6
2016-Jul-24 19:33N 37°54' E 023°37'3 3.3
2016-Jul-24 18:33N 37°57' E 023°38'0 0.0
2016-Jul-24 17:33N 37°57' E 023°38'0 0.0
2016-Jul-24 16:33N 37°57' E 023°38'0 0.0
2016-Jul-24 15:33N 37°57' E 023°38'4 4.4
2016-Jul-24 14:34N 37°52' E 023°38'2221.3
2016-Jul-24 13:33N 37°32' E 023°48'17 1.0
2016-Jul-23 21:32N 37°16' E 023°50'1919.6
2016-Jul-23 20:34N 37°34' E 023°44'1919.5
2016-Jul-23 19:34N 37°53' E 023°37'4 4.3
2016-Jul-23 18:34N 37°57' E 023°38'0 0.0
2016-Jul-23 17:34N 37°57' E 023°38'0 0.0
2016-Jul-23 16:33N 37°57' E 023°38'0 0.0
2016-Jul-23 15:34N 37°57' E 023°38'5 4.5
2016-Jul-23 14:33N 37°52' E 023°38'2121.1
2016-Jul-23 13:33N 37°33' E 023°48'38 2.5
2016-Jul-22 22:34N 36°55' E 023°56'2120.8
2016-Jul-22 21:33N 37°15' E 023°50'2020.4
2016-Jul-22 20:33N 37°35' E 023°43'2019.9
2016-Jul-22 19:33N 37°54' E 023°37'3 2.7
2016-Jul-22 18:33N 37°57' E 023°38'0 0.0
2016-Jul-22 17:33N 37°57' E 023°38'0 0.0
2016-Jul-22 16:33N 37°57' E 023°38'0 0.0
2016-Jul-22 15:33N 37°57' E 023°38'3 3.2
2016-Jul-22 14:34N 37°54' E 023°38'2120.7
2016-Jul-22 13:33N 37°34' E 023°47'16 1.0
2016-Jul-21 21:33N 37°18' E 023°50'2120.7
2016-Jul-21 20:33N 37°38' E 023°43'1918.8
2016-Jul-21 19:33N 37°56' E 023°37'1 1.0
2016-Jul-21 18:33N 37°57' E 023°38'0 0.0
2016-Jul-21 17:33N 37°57' E 023°38'0 0.0
2016-Jul-21 16:33N 37°57' E 023°38'0 0.0
2016-Jul-21 15:33N 37°57' E 023°38'0 0.0
2016-Jul-21 14:33N 37°57' E 023°38'0 0.0
2016-Jul-21 13:33N 37°57' E 023°38'0 0.0
2016-Jul-21 12:33N 37°57' E 023°38'0 0.0
2016-Jul-21 11:33N 37°57' E 023°38'0 0.0
2016-Jul-21 10:33N 37°57' E 023°38'0 0.0
2016-Jul-21 09:33N 37°57' E 023°38'0 0.0
2016-Jul-21 08:33N 37°57' E 023°38'0 0.0
2016-Jul-21 07:33N 37°57' E 023°38'0 0.0
2016-Jul-21 06:33N 37°57' E 023°38'0 0.0
2016-Jul-21 05:33N 37°57' E 023°38'0 0.0
2016-Jul-21 04:33N 37°57' E 023°38'0 0.0
2016-Jul-21 03:33N 37°57' E 023°38'7 6.9
2016-Jul-21 02:34N 37°50' E 023°40'2120.8
2016-Jul-21 01:33N 37°30' E 023°48'11 0.4
2016-Jul-19 21:32N 37°19' E 023°50'2020.6
2016-Jul-19 20:34N 37°38' E 023°43'1818.3
2016-Jul-19 19:34N 37°56' E 023°37'1 1.3
2016-Jul-19 18:33N 37°57' E 023°38'0 0.0
2016-Jul-19 17:33N 37°57' E 023°38'0 0.0
2016-Jul-19 16:33N 37°57' E 023°38'0 0.0
2016-Jul-19 15:33N 37°57' E 023°38'0 0.0
2016-Jul-19 14:33N 37°57' E 023°38'0 0.0
2016-Jul-19 13:33N 37°57' E 023°38'0 0.0
2016-Jul-19 12:33N 37°57' E 023°38'0 0.0
2016-Jul-19 11:30N 37°57' E 023°38'0 0.0
2016-Jul-19 10:34N 37°57' E 023°38'0 0.0
2016-Jul-19 09:33N 37°57' E 023°38'0 0.0
2016-Jul-19 08:34N 37°57' E 023°38'0 0.0
2016-Jul-19 07:33N 37°57' E 023°38'0 0.0
2016-Jul-19 04:33N 37°57' E 023°38'0 0.0
2016-Jul-19 03:33N 37°57' E 023°38'8 8.0
2016-Jul-19 02:33N 37°49' E 023°41'2020.0
2016-Jul-19 01:33N 37°30' E 023°48'  

Dump ship's entire track history